Time;durP1;ratioP1;P1;durP2;ratioP2;P2;SDS_P1;SDS_P2;PMS_P1;PMS_P2;Temp;Humidity;BMP_temperature;BMP_pressure;BME280_temperature;BME280_humidity;BME280_pressure;Samples;Min_cycle;Max_cycle;Signal;HPM_P1;HPM_P2
2023/02/21 02:15:14;;;;;;;25.92;14.18;;;;;;;6.85;70.26;99278.41;5112836;28;20047;-47
2023/02/21 02:18:31;;;;;;;21.30;15.50;;;;;;;6.91;69.70;99283.78;5112331;28;20066;-47
2023/02/21 02:21:43;;;;;;;19.63;15.30;;;;;;;6.87;70.16;99276.44;5112266;28;20080;-47
2023/02/21 02:25:00;;;;;;;19.50;14.18;;;;;;;6.97;69.41;99274.50;5112384;28;20398;-46
2023/02/21 02:28:20;;;;;;;26.38;14.95;;;;;;;6.94;69.32;99269.59;5112548;28;20063;-46
2023/02/21 02:31:23;;;;;;;20.30;16.15;;;;;;;6.92;69.45;99271.53;5110930;28;20636;-47
2023/02/21 02:34:16;;;;;;;21.95;14.95;;;;;;;6.72;69.75;99264.03;5110869;28;20118;-46
2023/02/21 02:37:25;;;;;;;18.50;15.73;;;;;;;6.47;69.74;99270.19;5112122;28;20118;-48
2023/02/21 02:40:17;;;;;;;25.63;15.68;;;;;;;6.38;70.66;99267.56;5111923;28;20028;-46
2023/02/21 02:43:06;;;;;;;21.75;14.45;;;;;;;6.35;71.01;99264.44;5093946;28;20027;-47
2023/02/21 02:46:36;;;;;;;26.33;15.90;;;;;;;6.28;70.32;99260.81;5110315;28;20118;-47
2023/02/21 02:49:32;;;;;;;21.33;16.30;;;;;;;6.38;70.64;99259.72;5112086;28;20023;-47
2023/02/21 02:52:13;;;;;;;44.67;29.05;;;;;;;6.46;70.55;99264.16;5093676;28;20035;-47
2023/02/21 02:54:42;;;;;;;21.35;15.48;;;;;;;6.55;69.81;99257.97;5111604;28;20044;-47
2023/02/21 02:57:11;;;;;;;21.08;15.13;;;;;;;6.59;69.12;99261.06;5112039;28;20093;-46
2023/02/21 02:59:57;;;;;;;21.90;14.85;;;;;;;6.64;69.50;99255.38;5111478;28;20039;-46
2023/02/21 03:03:33;;;;;;;22.15;15.50;;;;;;;6.67;69.13;99258.47;5111909;28;20024;-47
2023/02/21 03:06:50;;;;;;;17.58;14.40;;;;;;;6.71;69.25;99251.97;5111905;28;20024;-46
2023/02/21 03:09:44;;;;;;;24.27;15.13;;;;;;;6.58;69.05;99262.06;5111891;28;20115;-46
2023/02/21 03:12:53;;;;;;;19.70;15.10;;;;;;;6.40;69.49;99254.38;5111903;28;20035;-47
2023/02/21 03:15:27;;;;;;;18.60;13.63;;;;;;;6.47;69.40;99255.34;5111335;28;20028;-46
2023/02/21 03:18:47;;;;;;;22.67;15.40;;;;;;;6.44;69.70;99250.47;5097557;28;20031;-46
2023/02/21 03:21:29;;;;;;;21.20;14.43;;;;;;;6.23;68.97;99255.28;5112002;28;20040;-46
2023/02/21 03:24:05;;;;;;;22.30;14.07;;;;;;;6.14;69.38;99252.66;5116189;28;20134;-46
2023/02/21 03:26:56;;;;;;;;;;;;;;;;;;;;;
2023/02/21 03:30:02;;;;;;;21.27;14.30;;;;;;;6.25;69.78;99248.13;5114688;28;20042;-46
2023/02/21 03:33:01;;;;;;;17.42;13.02;;;;;;;6.16;70.05;99249.91;5097508;28;20023;-46
2023/02/21 03:35:29;;;;;;;16.42;13.43;;;;;;;6.09;69.88;99252.28;5097025;28;20027;-46
2023/02/21 03:38:10;;;;;;;18.50;13.95;;;;;;;6.11;69.86;99244.34;5115339;28;20116;-47
2023/02/21 03:40:36;;;;;;;23.42;15.20;;;;;;;6.10;70.07;99243.53;5096951;28;20096;-46
2023/02/21 03:43:20;;;;;;;20.95;15.18;;;;;;;6.02;70.48;99242.66;5096925;28;20027;-47
2023/02/21 03:45:55;;;;;;;16.58;13.95;;;;;;;6.02;71.00;99243.50;5115314;28;20518;-46
2023/02/21 03:48:41;;;;;;;18.98;15.13;;;;;;;6.01;72.03;99241.84;5115277;28;20023;-47
2023/02/21 03:51:27;;;;;;;16.27;13.95;;;;;;;6.07;71.93;99243.81;5096847;28;20404;-46
2023/02/21 03:53:57;;;;;;;21.27;15.02;;;;;;;6.04;71.57;99245.91;5115253;28;20023;-47
2023/02/21 03:56:26;;;;;;;18.08;13.88;;;;;;;6.05;72.29;99244.97;5114637;28;20051;-46
2023/02/21 03:58:53;;;;;;;16.25;14.55;;;;;;;6.11;71.54;99247.75;5097001;28;20040;-46
2023/02/21 04:01:20;;;;;;;16.70;13.90;;;;;;;6.12;71.02;99246.78;5114855;28;20392;-46
2023/02/21 04:03:56;;;;;;;22.80;19.83;;;;;;;6.02;71.01;99242.66;5096608;28;20028;-47
2023/02/21 04:06:22;;;;;;;;;;;;;;;5.92;71.82;99240.16;5115253;28;20026;-46
2023/02/21 04:08:50;;;;;;;18.48;13.00;;;;;;;5.88;71.85;99241.44;5114845;28;19912;-46
2023/02/21 04:11:20;;;;;;;20.98;13.30;;;;;;;5.88;71.32;99234.44;5114724;28;20031;-46
2023/02/21 04:13:46;;;;;;;20.38;13.77;;;;;;;5.80;70.82;99230.00;5096357;28;20118;-46
2023/02/21 04:16:32;;;;;;;19.10;13.13;;;;;;;5.74;71.54;99229.81;5113182;28;20519;-46
2023/02/21 04:19:21;;;;;;;18.13;13.65;;;;;;;5.69;71.81;99235.47;5096353;28;20392;-46
2023/02/21 04:22:07;;;;;;;14.23;11.70;;;;;;;5.72;70.82;99232.59;5114574;28;20047;-46
2023/02/21 04:24:49;;;;;;;15.50;11.27;;;;;;;5.75;70.62;99224.44;5114556;28;20024;-47
2023/02/21 04:27:39;;;;;;;16.38;13.05;;;;;;;5.78;70.70;99225.94;5113846;28;20038;-46
2023/02/21 04:30:14;;;;;;;17.80;12.07;;;;;;;5.77;70.60;99232.09;5113188;28;20054;-47
2023/02/21 04:32:57;;;;;;;101.55;60.75;;;;;;;5.78;70.11;99231.16;5096233;28;20024;-47
2023/02/21 04:35:31;;;;;;;34.03;19.02;;;;;;;5.90;70.11;99239.50;5114292;28;20031;-46
2023/02/21 04:38:19;;;;;;;21.52;14.27;;;;;;;5.97;69.56;99233.53;5114277;28;20073;-46
2023/02/21 04:40:46;;;;;;;53.33;40.65;;;;;;;5.93;69.62;99234.78;5095779;28;20039;-47
2023/02/21 04:43:33;;;;;;;20.20;12.68;;;;;;;6.11;69.93;99234.72;5114194;28;20016;-46
2023/02/21 04:46:15;;;;;;;20.48;12.50;;;;;;;6.16;69.93;99231.66;5095669;28;20034;-47
2023/02/21 04:48:53;;;;;;;21.05;12.10;;;;;;;6.24;69.26;99221.25;5095732;28;20107;-47
2023/02/21 04:51:33;;;;;;;16.05;11.65;;;;;;;6.21;69.08;99224.16;5114167;28;20519;-47
2023/02/21 04:54:00;;;;;;;19.48;13.13;;;;;;;6.18;68.64;99221.88;5113996;28;20015;-46
2023/02/21 04:56:27;;;;;;;22.55;12.02;;;;;;;6.25;68.47;99220.25;5113764;28;20537;-46
2023/02/21 04:58:55;;;;;;;20.55;13.20;;;;;;;6.24;68.02;99223.03;5113736;28;20035;-46
2023/02/21 05:01:30;;;;;;;18.83;14.02;;;;;;;6.22;67.81;99214.53;5095359;28;20034;-46
2023/02/21 05:03:58;;;;;;;16.00;12.07;;;;;;;6.20;67.81;99212.94;5113776;28;20027;-46
2023/02/21 05:06:27;;;;;;;16.42;11.13;;;;;;;6.17;67.67;99209.81;5113638;28;20460;-46
2023/02/21 05:08:55;;;;;;;18.58;11.80;;;;;;;6.11;67.42;99220.88;5113886;28;20039;-46
2023/02/21 05:11:23;;;;;;;16.58;10.95;;;;;;;6.11;67.78;99213.88;5113595;28;20047;-46
2023/02/21 05:13:51;;;;;;;12.93;11.38;;;;;;;6.22;67.26;99211.94;5095252;28;20497;-46
2023/02/21 05:16:18;;;;;;;16.35;11.20;;;;;;;6.15;67.44;99203.94;5095096;28;20026;-45
2023/02/21 05:18:47;;;;;;;16.27;11.60;;;;;;;6.16;68.08;99203.00;5113379;28;20059;-46
2023/02/21 05:21:15;;;;;;;15.52;10.50;;;;;;;6.15;67.39;99198.75;5113306;28;20020;-46
2023/02/21 05:23:54;;;;;;;16.67;12.07;;;;;;;6.13;67.74;99191.06;5113392;28;20457;-46
2023/02/21 05:26:25;;;;;;;14.88;10.50;;;;;;;6.09;67.84;99187.16;5095021;28;20386;-46
2023/02/21 05:28:53;;;;;;;35.03;13.30;;;;;;;6.11;67.86;99189.59;5094963;28;20032;-46
2023/02/21 05:31:20;;;;;;;18.67;12.35;;;;;;;6.05;67.33;99191.06;5113149;28;20484;-46
2023/02/21 05:33:48;;;;;;;14.05;10.32;;;;;;;5.99;67.70;99194.28;5113393;28;20072;-47
2023/02/21 05:36:24;;;;;;;18.23;11.52;;;;;;;5.99;67.78;99191.69;5094878;28;20023;-46
2023/02/21 05:38:55;;;;;;;;;;;;;;;5.94;67.52;99184.31;5112489;28;20554;-46
2023/02/21 05:41:32;;;;;;;14.43;10.00;;;;;;;5.84;67.81;99180.22;5112959;28;19911;-48
2023/02/21 05:44:04;;;;;;;21.42;12.93;;;;;;;5.66;67.66;99178.53;5112851;28;20062;-46
2023/02/21 05:46:33;;;;;;;20.70;13.00;;;;;;;5.64;68.25;99177.88;5094752;28;20503;-46
2023/02/21 05:49:05;;;;;;;14.75;12.32;;;;;;;5.68;68.16;99181.78;5094528;28;20455;-47
2023/02/21 05:51:43;;;;;;;14.35;10.48;;;;;;;5.60;68.11;99179.16;5112863;28;20489;-47
2023/02/21 05:54:22;;;;;;;22.73;11.13;;;;;;;5.53;68.96;99173.75;5112835;28;20024;-47
2023/02/21 05:56:50;;;;;;;39.80;14.63;;;;;;;5.55;68.92;99181.38;5076681;28;20056;-46
2023/02/21 05:59:21;;;;;;;15.93;10.55;;;;;;;5.58;68.79;99179.28;5074158;28;20043;-47
2023/02/21 06:01:49;;;;;;;29.10;10.75;;;;;;;5.57;69.31;99182.88;5092154;28;20114;-46
2023/02/21 06:04:17;;;;;;;20.50;10.77;;;;;;;5.67;69.33;99180.13;5092300;28;20498;-46
2023/02/21 06:06:45;;;;;;;24.83;11.45;;;;;;;5.72;68.98;99177.91;5092478;28;20027;-46
2023/02/21 06:09:11;;;;;;;22.50;11.88;;;;;;;5.89;68.78;99176.16;5092231;28;20031;-46
2023/02/21 06:11:39;;;;;;;18.50;11.35;;;;;;;5.97;68.28;99173.59;5073983;28;20028;-46
2023/02/21 06:14:25;;;;;;;14.18;11.40;;;;;;;6.02;68.57;99167.94;5092067;28;20123;-46
2023/02/21 06:16:52;;;;;;;17.37;12.87;;;;;;;5.98;68.45;99169.22;5092384;28;20462;-46
2023/02/21 06:19:19;;;;;;;17.63;11.63;;;;;;;5.96;68.85;99179.00;5092058;28;20249;-46
2023/02/21 06:21:46;;;;;;;20.65;12.85;;;;;;;5.99;68.87;99170.84;5073830;28;20573;-46
2023/02/21 06:24:13;;;;;;;18.10;11.95;;;;;;;6.06;68.26;99174.47;5073856;28;20024;-46
2023/02/21 06:26:41;;;;;;;36.20;11.98;;;;;;;6.15;68.18;99173.47;5091909;28;20020;-46
2023/02/21 06:29:10;;;;;;;40.15;13.02;;;;;;;6.30;68.01;99172.84;5092104;28;20032;-46
2023/02/21 06:31:37;;;;;;;39.10;12.32;;;;;;;6.42;67.31;99176.81;5091881;28;20056;-46
2023/02/21 06:34:05;;;;;;;24.50;12.30;;;;;;;6.48;68.21;99176.16;5073733;28;20123;-46
2023/02/21 06:36:32;;;;;;;17.50;10.75;;;;;;;6.58;68.28;99166.38;5091763;28;20073;-46
2023/02/21 06:39:01;;;;;;;24.58;11.38;;;;;;;6.70;66.75;99174.72;5073839;28;20103;-46
2023/02/21 06:41:29;;;;;;;25.65;12.38;;;;;;;6.70;67.27;99166.03;5073756;28;20044;-46
2023/02/21 06:43:58;;;;;;;37.30;11.52;;;;;;;6.73;67.28;99168.34;5073649;28;20489;-46
2023/02/21 06:46:28;;;;;;;20.83;10.10;;;;;;;6.80;66.43;99169.31;5073545;28;20154;-46
2023/02/21 06:48:55;;;;;;;16.27;11.25;;;;;;;6.69;64.65;99172.25;5091773;28;20041;-46
2023/02/21 06:51:27;;;;;;;30.67;13.70;;;;;;;6.56;65.40;99164.91;5076177;28;20040;-46
2023/02/21 06:53:56;;;;;;;23.60;13.38;;;;;;;6.50;65.58;99165.56;5077638;28;20032;-46
2023/02/21 06:56:23;;;;;;;19.25;11.48;;;;;;;6.42;66.29;99163.78;5108485;28;20513;-46
2023/02/21 06:58:50;;;;;;;14.77;11.18;;;;;;;6.51;66.29;99167.19;5097809;28;20135;-46
2023/02/21 07:01:17;;;;;;;29.42;14.43;;;;;;;6.74;66.66;99167.34;5116039;28;20026;-46
2023/02/21 07:03:45;;;;;;;33.67;13.80;;;;;;;7.27;66.40;99165.19;5097846;28;20469;-46
2023/02/21 07:06:12;;;;;;;36.50;12.02;;;;;;;8.05;65.00;99163.53;5115983;28;20020;-46
2023/02/21 07:08:39;;;;;;;45.25;13.23;;;;;;;8.97;62.86;99155.69;5116068;28;20020;-46
2023/02/21 07:11:06;;;;;;;37.30;14.68;;;;;;;10.05;60.52;99163.97;5097769;28;20039;-46
2023/02/21 07:13:33;;;;;;;33.60;12.88;;;;;;;10.89;57.65;99151.06;5115955;28;20426;-47
2023/02/21 07:16:01;;;;;;;33.25;12.43;;;;;;;11.47;55.79;99150.81;5115812;28;20019;-47
2023/02/21 07:18:29;;;;;;;27.98;11.98;;;;;;;11.84;54.17;99155.84;5115788;28;20080;-47
2023/02/21 07:20:56;;;;;;;29.75;12.27;;;;;;;12.27;52.37;99148.47;5115732;28;20016;-47
2023/02/21 07:23:23;;;;;;;27.50;12.80;;;;;;;12.68;49.55;99160.69;5097468;28;20024;-47
2023/02/21 07:25:50;;;;;;;29.90;13.15;;;;;;;12.85;48.84;99157.66;5115685;28;20016;-47
2023/02/21 07:28:18;;;;;;;26.92;11.73;;;;;;;13.11;48.13;99151.53;5115679;28;20066;-47
2023/02/21 07:30:45;;;;;;;26.38;13.13;;;;;;;13.55;47.93;99155.31;5115514;28;20020;-47
2023/02/21 07:33:13;;;;;;;21.90;12.40;;;;;;;14.05;46.68;99152.88;5115626;28;20026;-47
2023/02/21 07:35:40;;;;;;;22.23;11.65;;;;;;;14.48;45.33;99154.84;5097156;28;20107;-47
2023/02/21 07:38:07;;;;;;;18.90;12.02;;;;;;;14.71;44.14;99156.97;5115513;28;20393;-47
2023/02/21 07:40:34;;;;;;;31.38;12.60;;;;;;;14.76;43.90;99157.09;5115324;28;20028;-47
2023/02/21 07:43:01;;;;;;;20.05;12.98;;;;;;;14.86;43.32;99151.34;5115368;28;20484;-47
2023/02/21 07:45:28;;;;;;;32.58;13.00;;;;;;;14.90;43.70;99157.81;5115293;28;20504;-47
2023/02/21 07:47:55;;;;;;;33.22;13.38;;;;;;;14.75;44.19;99162.63;5097072;28;20404;-47
2023/02/21 07:50:24;;;;;;;26.88;12.82;;;;;;;14.86;44.63;99164.56;5115263;28;20117;-47
2023/02/21 07:52:51;;;;;;;32.85;13.57;;;;;;;15.09;44.26;99155.19;5115236;28;20035;-47
2023/02/21 07:55:20;;;;;;;29.00;12.60;;;;;;;14.89;44.34;99164.13;5093208;28;20512;-47
2023/02/21 07:57:48;;;;;;;32.38;13.18;;;;;;;14.60;45.25;99155.00;5094725;28;20028;-47
2023/02/21 08:00:16;;;;;;;27.02;12.82;;;;;;;14.65;44.64;99159.63;5094476;28;20024;-47
2023/02/21 08:02:56;;;;;;;25.35;11.73;;;;;;;14.15;45.11;99161.16;5087711;28;20027;-48
2023/02/21 08:05:27;;;;;;;24.67;12.02;;;;;;;13.81;46.00;99170.25;5093311;28;20036;-47
2023/02/21 08:07:54;;;;;;;24.40;13.05;;;;;;;13.63;46.54;99162.22;5094501;28;20024;-47
2023/02/21 08:10:26;;;;;;;37.47;14.02;;;;;;;13.81;47.14;99161.53;5094337;28;20032;-47
2023/02/21 08:12:53;;;;;;;52.15;15.52;;;;;;;14.23;46.65;99162.75;5089978;28;20031;-47
2023/02/21 08:15:20;;;;;;;41.47;14.63;;;;;;;14.71;45.59;99167.53;5085314;28;20046;-47
2023/02/21 08:17:50;;;;;;;32.72;13.38;;;;;;;15.28;45.08;99153.41;5094333;28;20020;-47
2023/02/21 08:20:18;;;;;;;35.45;14.10;;;;;;;16.03;43.48;99149.69;5085890;28;20031;-47
2023/02/21 08:22:45;;;;;;;24.33;13.70;;;;;;;16.54;42.44;99149.16;5094243;28;20020;-47
2023/02/21 08:25:14;;;;;;;22.65;12.52;;;;;;;16.97;41.38;99149.91;5094013;28;20080;-47
2023/02/21 08:27:45;;;;;;;19.88;12.27;;;;;;;17.22;40.68;99144.38;5087896;28;20026;-46
2023/02/21 08:30:21;;;;;;;32.30;12.60;;;;;;;17.68;40.51;99147.19;5093996;28;20498;-45
2023/02/21 08:32:50;;;;;;;23.10;12.45;;;;;;;18.34;39.01;99139.66;5094011;28;20031;-45
2023/02/21 08:35:18;;;;;;;30.08;13.18;;;;;;;19.14;36.90;99138.53;5084498;28;20095;-45
2023/02/21 08:37:47;;;;;;;19.85;12.98;;;;;;;19.93;35.32;99136.56;5093987;28;20024;-46
2023/02/21 08:40:18;;;;;;;19.55;12.50;;;;;;;20.48;34.26;99138.19;5092341;28;20516;-46
2023/02/21 08:42:49;;;;;;;34.28;13.43;;;;;;;20.76;34.14;99130.94;5093884;28;20052;-46
2023/02/21 08:45:19;;;;;;;28.63;13.60;;;;;;;20.98;34.23;99133.47;5085580;28;20036;-45
2023/02/21 08:47:46;;;;;;;30.33;13.48;;;;;;;21.07;33.87;99133.81;5093701;28;20031;-46
2023/02/21 08:50:14;;;;;;;32.60;13.30;;;;;;;20.15;34.76;99134.66;5093648;28;20153;-45
2023/02/21 08:52:41;;;;;;;57.10;15.10;;;;;;;19.02;36.13;99134.38;5070778;28;20046;-45
2023/02/21 08:55:09;;;;;;;49.08;14.82;;;;;;;17.71;39.29;99138.75;5094553;28;20043;-46
2023/02/21 08:58:09;;;;;;;32.53;14.40;;;;;;;19.03;38.81;99139.44;5095654;28;20092;-46
2023/02/21 09:00:43;;;;;;;32.13;12.75;;;;;;;21.10;35.95;99125.28;5113927;28;20027;-46
2023/02/21 09:03:12;;;;;;;23.23;13.00;;;;;;;22.58;33.41;99124.94;5113762;28;20043;-45
2023/02/21 09:05:39;;;;;;;34.30;13.02;;;;;;;23.62;31.33;99116.34;5095458;28;20034;-46
2023/02/21 09:08:09;;;;;;;20.92;13.02;;;;;;;24.51;29.94;99113.69;5113815;28;20478;-46
2023/02/21 09:10:46;;;;;;;28.88;13.75;;;;;;;24.01;29.71;99114.84;5113650;28;20016;-45
2023/02/21 09:13:31;;;;;;;34.08;14.05;;;;;;;24.30;29.31;99104.97;5113204;28;20047;-46
2023/02/21 09:15:59;;;;;;;29.45;13.68;;;;;;;24.93;28.39;99097.97;5095249;28;20027;-46
2023/02/21 09:18:27;;;;;;;37.03;14.40;;;;;;;25.63;27.56;99102.00;5095233;28;20118;-46
2023/02/21 09:20:56;;;;;;;45.25;15.05;;;;;;;26.20;26.68;99091.25;5113308;28;20350;-46
2023/02/21 09:23:25;;;;;;;27.63;14.10;;;;;;;26.25;26.62;99091.19;5113318;28;20023;-46
2023/02/21 09:25:52;;;;;;;23.65;13.75;;;;;;;26.39;26.48;99091.22;5113365;28;20016;-46
2023/02/21 09:28:20;;;;;;;31.60;13.45;;;;;;;26.63;26.44;99091.13;5113306;28;20027;-45
2023/02/21 09:30:48;;;;;;;24.73;13.93;;;;;;;26.68;26.14;99088.31;5113222;28;20516;-46
2023/02/21 09:33:16;;;;;;;19.80;10.80;;;;;;;26.72;25.39;99089.31;5113123;28;20027;-46
2023/02/21 09:35:44;;;;;;;41.80;13.82;;;;;;;26.17;26.00;99078.41;5113169;28;20015;-46
2023/02/21 09:38:13;;;;;;;76.88;14.23;;;;;;;25.01;27.31;99080.44;5113116;28;20497;-46
2023/02/21 09:40:57;;;;;;;43.75;14.00;;;;;;;23.75;28.81;99082.81;5112968;28;20030;-46
2023/02/21 09:43:32;;;;;;;34.92;12.57;;;;;;;23.64;29.77;99079.41;5113144;28;20032;-46
2023/02/21 09:46:13;;;;;;;19.30;11.35;;;;;;;24.25;29.32;99080.88;5112954;28;20123;-46
2023/02/21 09:48:42;;;;;;;27.77;12.90;;;;;;;24.59;28.90;99065.84;5113009;28;20504;-46
2023/02/21 09:51:12;;;;;;;29.15;12.60;;;;;;;24.79;29.09;99068.34;5112831;28;20024;-46
2023/02/21 09:53:43;;;;;;;28.80;12.55;;;;;;;25.10;28.95;99063.41;5112746;28;20038;-46
2023/02/21 09:56:36;;;;;;;30.42;13.35;;;;;;;25.83;28.76;99063.28;5112533;28;20056;-47
2023/02/21 09:59:10;;;;;;;24.85;12.70;;;;;;;26.82;27.35;99058.72;5112670;28;20110;-46
2023/02/21 10:01:50;;;;;;;23.02;12.73;;;;;;;27.63;26.39;99050.88;5112576;28;20477;-46
2023/02/21 10:04:56;;;;;;;25.80;12.45;;;;;;;27.99;25.69;99055.47;5112747;28;20023;-46
2023/02/21 10:08:11;;;;;;;20.40;11.18;;;;;;;28.14;25.66;99040.00;5112577;28;20034;-46
2023/02/21 10:11:20;;;;;;;15.60;11.02;;;;;;;28.64;25.58;99037.13;5112558;28;20619;-47
2023/02/21 10:14:22;;;;;;;23.70;11.68;;;;;;;29.24;24.89;99023.00;5112518;28;20405;-46
2023/02/21 10:17:19;;;;;;;44.22;13.32;;;;;;;29.73;23.90;99022.91;5112437;28;20031;-47
2023/02/21 10:20:24;;;;;;;21.98;11.77;;;;;;;29.84;23.22;99023.34;5112420;28;20027;-47
2023/02/21 10:23:29;;;;;;;29.02;11.65;;;;;;;30.05;23.58;99018.09;5112279;28;20024;-47
2023/02/21 10:26:21;;;;;;;22.75;11.70;;;;;;;29.97;23.32;99013.47;5111756;28;20477;-46
2023/02/21 10:29:05;;;;;;;20.92;12.38;;;;;;;29.32;23.99;99015.22;5112095;28;20405;-46
2023/02/21 10:31:44;;;;;;;22.15;11.10;;;;;;;28.91;24.65;99013.69;5077703;28;20032;-47
2023/02/21 10:34:46;;;;;;;20.48;11.43;;;;;;;28.85;24.31;99011.13;5112152;28;20109;-47
2023/02/21 10:37:53;;;;;;;17.80;11.73;;;;;;;28.83;24.52;99007.16;5093915;28;20028;-46
2023/02/21 10:40:37;;;;;;;21.55;10.73;;;;;;;29.08;24.43;99003.72;5112079;28;20020;-47
2023/02/21 10:43:37;;;;;;;14.60;10.40;;;;;;;29.28;24.10;99002.34;5112214;28;20031;-47
2023/02/21 10:46:38;;;;;;;18.75;10.82;;;;;;;29.30;24.46;99004.72;5112181;28;20023;-46
2023/02/21 10:50:00;;;;;;;31.50;11.57;;;;;;;28.70;24.89;98998.06;5111917;28;20043;-47
2023/02/21 10:52:45;;;;;;;21.70;11.90;;;;;;;27.76;25.42;98997.97;5112165;28;20016;-47
2023/02/21 10:55:22;;;;;;;18.10;12.13;;;;;;;27.43;25.82;98992.81;5111631;28;20055;-46
2023/02/21 10:58:10;;;;;;;21.02;11.65;;;;;;;27.74;26.15;98988.59;5112042;28;20039;-46
2023/02/21 11:01:01;;;;;;;15.95;10.70;;;;;;;28.38;25.08;98983.75;5112196;28;20024;-47
2023/02/21 11:03:33;;;;;;;20.83;11.05;;;;;;;28.97;24.36;98977.31;5111888;28;20046;-47
2023/02/21 11:06:00;;;;;;;13.90;10.63;;;;;;;29.54;23.68;98979.09;5076881;28;20020;-47
2023/02/21 11:08:41;;;;;;;21.98;10.65;;;;;;;30.13;23.67;98963.13;5111843;28;20024;-47
2023/02/21 11:11:47;;;;;;;22.63;10.27;;;;;;;30.62;23.12;98968.19;5090752;28;20126;-47
2023/02/21 11:14:32;;;;;;;;;;;;;;;30.93;22.92;98961.66;5093979;28;20115;-47
2023/02/21 11:17:51;;;;;;;35.20;10.50;;;;;;;30.79;23.07;98960.00;5111548;28;19919;-46
2023/02/21 11:20:32;;;;;;;35.20;10.02;;;;;;;30.95;23.15;98954.00;5110546;28;20125;-47
2023/02/21 11:22:59;;;;;;;15.20;9.52;;;;;;;31.09;22.38;98951.03;5111820;28;20020;-47
2023/02/21 11:25:39;;;;;;;14.63;10.55;;;;;;;31.05;22.53;98942.78;5076651;28;20046;-47
2023/02/21 11:28:21;;;;;;;18.73;9.60;;;;;;;31.08;22.15;98938.63;5093476;28;20535;-47
2023/02/21 11:31:35;;;;;;;16.38;9.85;;;;;;;30.95;22.67;98935.84;5106439;28;20067;-46
2023/02/21 11:34:25;;;;;;;17.33;9.40;;;;;;;30.41;23.02;98931.03;5111754;28;20028;-46
2023/02/21 11:37:22;;;;;;;18.88;11.13;;;;;;;30.67;22.71;98928.19;5111739;28;20027;-47
2023/02/21 11:40:34;;;;;;;17.65;9.88;;;;;;;31.02;22.50;98919.03;5115343;28;20078;-46
2023/02/21 11:43:18;;;;;;;15.05;9.80;;;;;;;30.54;22.76;98921.06;5115302;28;20110;-47
2023/02/21 11:46:03;;;;;;;;;;;;;;;29.80;23.19;98914.19;5115766;28;20110;-46
2023/02/21 11:48:56;;;;;;;13.18;8.73;;;;;;;29.34;23.96;98904.84;5115207;28;20022;-46
2023/02/21 11:51:34;;;;;;;12.93;9.00;;;;;;;28.66;25.08;98900.66;5073826;28;20354;-46
2023/02/21 11:54:04;;;;;;;20.88;9.98;;;;;;;28.54;25.35;98900.47;5115458;28;20057;-46
2023/02/21 11:57:08;;;;;;;19.30;10.23;;;;;;;28.37;25.73;98897.69;5114736;28;20073;-47
2023/02/21 11:59:55;;;;;;;15.40;10.45;;;;;;;28.05;25.68;98886.13;5112578;28;20078;-46
2023/02/21 12:02:49;;;;;;;22.48;10.93;;;;;;;27.35;27.21;98901.13;5114991;28;20031;-46
2023/02/21 12:05:37;;;;;;;10.02;8.75;;;;;;;26.70;27.51;98894.97;5114989;28;20049;-46
2023/02/21 12:08:24;;;;;;;20.00;9.95;;;;;;;26.03;29.48;98884.69;5114902;28;20081;-46
2023/02/21 12:11:19;;;;;;;17.25;8.57;;;;;;;25.52;29.14;98880.97;5114447;28;20040;-47
2023/02/21 12:14:05;;;;;;;19.35;14.45;;;;;;;25.43;29.54;98872.78;5114886;28;20103;-46
2023/02/21 12:16:47;;;;;;;9.90;8.90;;;;;;;25.33;29.35;98864.88;5114786;28;20019;-46
2023/02/21 12:19:28;;;;;;;10.70;8.95;;;;;;;25.39;29.10;98861.03;5114657;28;20428;-46
2023/02/21 12:22:27;;;;;;;10.85;9.75;;;;;;;25.54;28.97;98854.59;5114541;28;20032;-46
2023/02/21 12:25:20;;;;;;;21.17;10.88;;;;;;;26.07;28.68;98848.81;5114666;28;20032;-47
2023/02/21 12:28:06;;;;;;;22.65;11.85;;;;;;;26.81;28.08;98842.47;5114659;28;20042;-47
2023/02/21 12:31:04;;;;;;;11.02;9.02;;;;;;;27.30;27.66;98838.13;5114498;28;20088;-47
2023/02/21 12:33:57;;;;;;;18.98;10.02;;;;;;;27.46;27.18;98838.53;5114425;28;20080;-46
2023/02/21 12:36:29;;;;;;;45.45;11.18;;;;;;;27.53;26.96;98829.22;5114416;28;20105;-47
2023/02/21 12:39:27;;;;;;;19.38;9.63;;;;;;;27.32;27.18;98832.44;5114344;28;20023;-46
2023/02/21 12:42:14;;;;;;;13.30;8.98;;;;;;;27.05;27.25;98820.66;5114142;28;20024;-47
2023/02/21 12:45:14;;;;;;;10.90;9.68;;;;;;;26.59;27.99;98821.69;5114168;28;20053;-46
2023/02/21 12:48:21;;;;;;;11.93;8.68;;;;;;;26.38;27.64;98823.19;5095559;28;20032;-46
2023/02/21 12:50:56;;;;;;;10.15;8.90;;;;;;;26.00;28.33;98810.78;5112515;28;20036;-46
2023/02/21 12:53:29;;;;;;;;;;;;;;;26.28;28.66;98814.25;5113085;28;20032;-46
2023/02/21 12:56:40;;;;;;;13.30;9.27;;;;;;;25.95;28.63;98807.41;5092156;28;19916;-46
2023/02/21 12:59:51;;;;;;;17.08;9.45;;;;;;;25.39;29.20;98801.13;5107874;28;20405;-46
2023/02/21 13:02:35;;;;;;;18.70;9.80;;;;;;;24.55;31.32;98801.84;5093336;28;20024;-46
2023/02/21 13:05:39;;;;;;;13.82;9.20;;;;;;;24.48;31.23;98794.13;5093397;28;20039;-46
2023/02/21 13:08:41;;;;;;;14.82;8.98;;;;;;;24.61;31.00;98798.00;5093259;28;20341;-46
2023/02/21 13:11:45;;;;;;;15.50;9.00;;;;;;;24.69;30.92;98782.06;5093327;28;20031;-46
2023/02/21 13:14:56;;;;;;;15.65;9.45;;;;;;;24.85;30.55;98779.94;5093222;28;20020;-46
2023/02/21 13:17:25;;;;;;;12.02;8.82;;;;;;;24.85;30.50;98777.25;5093024;28;20456;-45
2023/02/21 13:20:06;;;;;;;19.48;8.63;;;;;;;24.91;30.28;98769.91;5088474;28;20085;-46
2023/02/21 13:25:51;;;;;;;16.33;8.80;;;;;;;24.66;30.77;98757.69;5093309;28;20039;-46
2023/02/21 13:28:25;;;;;;;17.10;9.95;;;;;;;24.71;31.04;98752.25;5092962;28;20409;-46
2023/02/21 13:31:55;;;;;;;13.95;9.10;;;;;;;24.46;31.68;98756.06;5092921;28;20397;-46
2023/02/21 13:34:58;;;;;;;16.58;8.93;;;;;;;24.04;31.83;98734.34;5092796;28;20409;-46
2023/02/21 13:37:47;;;;;;;19.35;10.30;;;;;;;23.70;32.01;98735.28;5092880;28;20397;-45
2023/02/21 13:40:30;;;;;;;11.80;9.27;;;;;;;23.36;32.72;98734.56;5092638;28;20043;-45
2023/02/21 13:43:05;;;;;;;18.27;10.55;;;;;;;22.93;33.24;98735.97;5088842;28;20036;-45
2023/02/21 13:45:32;;;;;;;11.98;9.38;;;;;;;22.37;33.49;98739.03;5092606;28;20027;-45
2023/02/21 13:48:39;;;;;;;22.27;9.48;;;;;;;21.77;35.52;98724.84;5092573;28;20102;-45
2023/02/21 13:51:47;;;;;;;11.80;10.02;;;;;;;21.17;36.12;98725.50;5092516;28;20039;-46
2023/02/21 13:54:33;;;;;;;13.13;9.30;;;;;;;20.87;36.96;98723.66;5092267;28;20028;-45
2023/02/21 13:57:02;;;;;;;11.48;10.20;;;;;;;20.68;37.41;98726.03;5105635;28;20067;-45
2023/02/21 13:59:33;;;;;;;15.45;9.82;;;;;;;20.66;37.57;98717.50;5091964;28;20028;-45
2023/02/21 14:02:45;;;;;;;18.10;9.63;;;;;;;20.63;38.46;98712.69;5092034;28;20023;-45
2023/02/21 14:05:20;;;;;;;14.23;9.55;;;;;;;20.57;38.53;98711.84;5092194;28;20035;-46
2023/02/21 14:08:24;;;;;;;20.35;9.43;;;;;;;20.68;37.91;98712.69;5092247;28;20024;-45
2023/02/21 14:11:15;;;;;;;13.00;9.40;;;;;;;20.54;37.37;98707.88;5092060;28;20031;-45
2023/02/21 14:14:39;;;;;;;19.58;9.55;;;;;;;20.31;37.74;98706.47;5078598;28;20059;-45
2023/02/21 14:17:14;;;;;;;11.93;9.07;;;;;;;20.17;37.82;98699.25;5090360;28;20028;-45
2023/02/21 14:19:52;;;;;;;15.32;8.52;;;;;;;19.86;38.39;98705.28;5085890;28;20016;-45
2023/02/21 14:22:32;;;;;;;17.55;8.85;;;;;;;19.73;38.61;98706.56;5090704;28;20054;-45
2023/02/21 14:25:21;;;;;;;13.60;9.05;;;;;;;19.63;38.88;98695.03;5092073;28;20031;-45
2023/02/21 14:27:52;;;;;;;16.08;7.82;;;;;;;19.36;39.81;98695.97;5092020;28;20028;-45
2023/02/21 14:30:42;;;;;;;18.05;9.77;;;;;;;19.11;39.99;98692.06;5083970;28;20115;-45
2023/02/21 14:33:26;;;;;;;30.13;10.77;;;;;;;18.76;40.72;98695.25;5089690;28;20020;-45
2023/02/21 14:36:13;;;;;;;20.73;9.98;;;;;;;18.47;41.71;98690.22;5091798;28;20024;-45
2023/02/21 14:38:43;;;;;;;13.82;9.82;;;;;;;18.29;41.99;98693.19;5091885;28;20495;-45
2023/02/21 14:41:33;;;;;;;18.55;11.75;;;;;;;18.10;42.71;98696.19;5106571;28;20035;-45
2023/02/21 14:44:46;;;;;;;14.77;9.88;;;;;;;18.06;43.04;98686.34;5091855;28;20059;-45